Aeroporto :
LOGIN :

Iscrizione | Disclaimer

   EN    FR    IT 

 










Sommario :    VFR   VFR Marginale   IFR   IFR Intensivo   IFR Molto Intensivo
Visibilità : 
Base nubi : 
>= 8 km
>= 3000ft
5 / 8 km
1000 / 3000 ft
1500m / 5 km
500 / 1000 ft
800 / 1500m
200 / 500 ft
< 800m
< 200 ft
Simboli :   Temporali  Nebbia  Neve Forte  Precipitazioni Forti  Vento > 20 kt
SIGMETs :   Varie  Temporali  Ghiacco  Turbolenza  Onda orograficha  Ceneri Vulcaniche






- Altitudine del aeroporto : 1213 ft
- Codice IATA : SCQ


LEST - Santiago de Compostela

ULTIMO METAR :
  • 250500Z VRB01KT 9999 SCT010 BKN014 08/08 Q1012 TEMPO 3000 RADZ BKN010

METARs OBSOLETI :
  • 250430Z VRB01KT 9999 FEW003 SCT007 BKN017 08/08 Q1012 TEMPO 3000 RADZ BKN010
  • 250400Z 19003KT 9999 FEW003 SCT009 BKN021 08/08 Q1012 TEMPO 3000 RADZ BKN010
  • 250330Z 22003KT 9999 FEW003 SCT007 BKN018 08/08 Q1012 TEMPO 3000 RADZ BKN010
  • 250300Z VRB02KT 9999 FEW003 SCT008 BKN020 08/08 Q1012 RERA TEMPO 3000 RADZ BKN010
  • 250230Z 26002KT 9999 -RA FEW003 SCT011 BKN044 08/07 Q1012 TEMPO 3000 RADZ BKN010
  • 250200Z VRB01KT 8000 RA FEW005 SCT010 BKN032 08/07 Q1012 TEMPO 3000 RADZ BKN010

TAF TAF LEST
Valido dal 25 a 00 ore il 26 a 00 ore UTC


242300Z 2500/2524 VRB05KT 9000 SCT025 TX11/2500Z TN06/2508Z
TEMPO 2500/2512 3000 RADZ BR BKN010
PROB40
TEMPO 2500/2504 1500 +RA BKN005
PROB40
TEMPO 2500/2510 0800 FG BKN002
PROB40
TEMPO 2516/2524 3000 BR



MetMap, La meteo Aeronautica in un colpo d'occhio ! - Copyright ORBIFLY Dicembre 2007 - Disclaimer

ORBIFLY MET'MAP TEAM :

Programmazione e sviluppo : Alexandra Zaïnal
Concezione : Baudouin d'Aumeries
Aiuto per la programmazione : Marc-Olivier Méhu
Supporto tecnico e logistico : Manuel Goepfert
Aiuto per la traduzione : Arnaldo La Scala

Contatto : metmap@orbifly.com




FONTI E CREDITI :

   NOAA